Time;durP1;ratioP1;P1;durP2;ratioP2;P2;SDS_P1;SDS_P2;PMS_P1;PMS_P2;Temp;Humidity;BMP_temperature;BMP_pressure;BME280_temperature;BME280_humidity;BME280_pressure;Samples;Min_cycle;Max_cycle;Signal;HPM_P1;HPM_P2
2023/03/06 00:01:39;;;;;;;1.95;1.45;;;;;;;4.70;54.77;100767.50;4978913;28;20041;-83
2023/03/06 00:04:07;;;;;;;1.52;1.40;;;;;;;4.61;54.24;100745.47;4994778;28;20033;-83
2023/03/06 00:06:33;;;;;;;4.57;2.65;;;;;;;4.81;54.40;100779.19;4995180;28;20086;-83
2023/03/06 00:08:58;;;;;;;3.92;1.90;;;;;;;4.66;53.96;100771.88;4978778;28;20030;-83
2023/03/06 00:11:23;;;;;;;1.33;0.63;;;;;;;4.67;53.78;100770.97;4978617;28;20030;-83
2023/03/06 00:13:49;;;;;;;2.97;1.33;;;;;;;4.73;53.27;100760.59;4978559;28;20056;-83
2023/03/06 00:16:14;;;;;;;2.35;1.33;;;;;;;4.66;53.55;100759.06;5010930;28;20034;-83
2023/03/06 00:18:42;;;;;;;1.40;1.30;;;;;;;4.68;53.39;100779.50;4994224;28;20018;-83
2023/03/06 00:21:08;;;;;;;2.20;2.00;;;;;;;4.67;53.46;100781.22;4995118;28;20087;-83
2023/03/06 00:23:35;;;;;;;0.55;0.55;;;;;;;4.65;53.53;100770.19;5011186;28;20029;-83
2023/03/06 00:26:00;;;;;;;1.98;1.40;;;;;;;4.57;52.94;100759.25;5010999;28;20032;-83
2023/03/06 00:28:26;;;;;;;3.58;2.13;;;;;;;4.53;53.62;100758.50;5010671;28;20029;-83
2023/03/06 00:30:51;;;;;;;2.30;1.50;;;;;;;4.39;53.14;100745.13;5010645;28;20053;-83
2023/03/06 00:33:16;;;;;;;3.65;2.38;;;;;;;4.41;52.98;100757.88;5010798;28;20076;-83
2023/03/06 00:35:42;;;;;;;2.28;1.70;;;;;;;4.45;52.93;100757.81;5010838;28;20412;-83
2023/03/06 00:38:10;;;;;;;1.60;1.35;;;;;;;4.50;53.23;100762.81;4994300;28;20026;-83
2023/03/06 00:40:35;;;;;;;1.55;0.80;;;;;;;4.59;53.33;100776.28;4994585;28;20099;-83
2023/03/06 00:43:01;;;;;;;1.17;0.82;;;;;;;4.41;53.44;100765.56;5010759;28;20475;-83
2023/03/06 00:45:26;;;;;;;0.88;0.70;;;;;;;4.40;53.65;100774.97;5010636;28;20424;-83
2023/03/06 00:47:51;;;;;;;0.80;0.65;;;;;;;4.46;54.01;100763.78;4993695;28;20018;-83
2023/03/06 00:50:17;;;;;;;2.13;1.45;;;;;;;4.47;53.38;100768.00;4977974;28;20469;-83
2023/03/06 00:52:42;;;;;;;2.72;1.85;;;;;;;4.52;53.13;100761.06;4993967;28;20030;-83
2023/03/06 00:55:09;;;;;;;2.60;1.52;;;;;;;4.41;53.35;100760.44;4994423;28;20030;-83
2023/03/06 00:57:34;;;;;;;2.55;1.70;;;;;;;4.44;53.36;100771.50;4977763;28;20060;-83
2023/03/06 00:59:59;;;;;;;2.15;1.60;;;;;;;4.25;53.66;100745.41;4977869;28;20403;-83
2023/03/06 01:02:25;;;;;;;0.47;0.43;;;;;;;4.43;53.81;100771.53;5010089;28;20455;-83
2023/03/06 01:04:50;;;;;;;1.17;0.82;;;;;;;4.40;53.65;100779.25;5010030;28;20026;-83
2023/03/06 01:07:16;;;;;;;1.70;1.38;;;;;;;4.36;53.94;100767.41;4977376;28;20050;-83
2023/03/06 01:09:41;;;;;;;9.70;2.25;;;;;;;4.24;54.01;100756.53;4977618;28;20445;-83
2023/03/06 01:12:07;;;;;;;1.38;1.05;;;;;;;4.19;53.80;100760.91;4977577;28;20038;-83
2023/03/06 01:14:33;;;;;;;4.78;1.75;;;;;;;4.17;53.93;100747.28;4977317;28;20053;-83
2023/03/06 01:16:58;;;;;;;0.82;0.80;;;;;;;4.08;53.97;100737.25;4993806;28;20030;-83
2023/03/06 01:19:23;;;;;;;1.13;1.02;;;;;;;4.31;53.83;100776.00;5010152;28;20041;-83
2023/03/06 01:21:49;;;;;;;0.90;0.85;;;;;;;4.30;54.05;100773.47;4977484;28;20034;-83
2023/03/06 01:24:14;;;;;;;1.48;1.25;;;;;;;4.31;54.00;100765.75;4977463;28;20033;-83
2023/03/06 01:26:40;;;;;;;1.48;1.27;;;;;;;4.36;53.96;100764.84;4993389;28;20041;-83
2023/03/06 01:29:05;;;;;;;0.50;0.50;;;;;;;4.26;53.91;100767.59;4993646;28;20034;-83
2023/03/06 01:31:31;;;;;;;1.67;1.52;;;;;;;4.34;54.04;100769.16;4993420;28;20030;-83
2023/03/06 01:33:56;;;;;;;1.17;0.90;;;;;;;4.37;54.21;100775.06;4977381;28;20462;-83
2023/03/06 01:36:22;;;;;;;1.42;1.25;;;;;;;4.31;53.96;100776.00;4977255;28;20029;-83
2023/03/06 01:38:47;;;;;;;1.40;1.30;;;;;;;4.32;53.83;100764.88;4993440;28;20034;-83
2023/03/06 01:41:16;;;;;;;0.80;0.75;;;;;;;4.34;53.77;100759.75;4977247;28;20030;-83
2023/03/06 01:43:43;;;;;;;1.73;1.23;;;;;;;4.42;53.61;100780.91;4993327;28;20091;-83
2023/03/06 01:46:27;;;;;;;4.55;1.48;;;;;;;4.45;53.71;100783.44;4977333;28;20062;-83
2023/03/06 01:49:05;;;;;;;1.17;0.70;;;;;;;4.46;53.92;100779.13;5009640;28;20404;-83
2023/03/06 01:51:35;;;;;;;1.63;1.10;;;;;;;4.47;53.77;100775.69;5009682;28;20099;-83
2023/03/06 01:54:02;;;;;;;1.00;0.80;;;;;;;4.40;53.40;100758.78;4977605;28;20026;-83
2023/03/06 01:56:28;;;;;;;2.90;1.60;;;;;;;4.58;53.49;100773.75;4977300;28;20037;-83
2023/03/06 01:58:53;;;;;;;2.13;1.02;;;;;;;4.48;53.23;100767.13;4976870;28;20032;-83
2023/03/06 02:01:19;;;;;;;1.20;1.00;;;;;;;4.69;52.83;100781.19;4993338;28;20100;-83
2023/03/06 02:03:46;;;;;;;1.25;1.15;;;;;;;4.61;53.00;100773.66;4977037;28;20533;-83
2023/03/06 02:06:11;;;;;;;1.50;1.10;;;;;;;4.44;52.50;100747.59;4993478;28;20104;-83
2023/03/06 02:08:37;;;;;;;0.35;0.35;;;;;;;4.71;53.02;100782.00;4993104;28;20030;-83
2023/03/06 02:11:11;;;;;;;1.02;0.95;;;;;;;4.63;52.67;100766.81;4995549;28;20526;-83
2023/03/06 02:13:36;;;;;;;1.63;0.90;;;;;;;4.60;52.24;100772.81;5013185;28;20037;-82
2023/03/06 02:16:02;;;;;;;2.55;1.27;;;;;;;4.68;52.52;100784.63;4980880;28;20415;-83
2023/03/06 02:18:28;;;;;;;2.70;1.02;;;;;;;4.64;52.20;100775.34;4997128;28;20030;-83
2023/03/06 02:20:56;;;;;;;5.25;1.95;;;;;;;4.71;52.09;100780.28;4980728;28;20026;-83
2023/03/06 02:23:55;;;;;;;7.95;3.00;;;;;;;4.65;52.21;100774.47;4997499;28;20022;-83
2023/03/06 02:26:20;;;;;;;1.67;1.15;;;;;;;4.55;52.97;100771.25;5014738;28;20038;-83
2023/03/06 02:28:46;;;;;;;2.67;1.73;;;;;;;4.66;53.52;100802.63;4996685;28;20034;-83
2023/03/06 02:31:23;;;;;;;2.28;1.77;;;;;;;4.36;53.36;100772.53;4996640;28;20038;-83
2023/03/06 02:34:27;;;;;;;1.35;1.02;;;;;;;4.40;54.44;100802.31;4980668;28;20033;-83
2023/03/06 02:37:00;;;;;;;1.45;1.35;;;;;;;4.21;54.19;100805.25;5013777;28;20033;-83
2023/03/06 02:39:27;;;;;;;1.40;0.95;;;;;;;4.21;54.78;100801.84;4996881;28;20073;-83
2023/03/06 02:41:53;;;;;;;1.25;1.02;;;;;;;4.21;54.74;100804.41;4996123;28;20034;-83
2023/03/06 02:44:18;;;;;;;3.35;2.58;;;;;;;4.09;54.15;100797.81;4996399;28;20033;-83
2023/03/06 02:46:44;;;;;;;2.85;1.95;;;;;;;4.02;54.80;100804.75;4996361;28;20029;-83
2023/03/06 02:49:09;;;;;;;3.40;2.17;;;;;;;3.80;54.91;100777.03;4980119;28;20045;-83
2023/03/06 02:51:35;;;;;;;3.58;2.47;;;;;;;4.02;54.90;100801.34;5012720;28;20033;-83
2023/03/06 02:54:00;;;;;;;12.10;1.80;;;;;;;3.93;54.69;100799.84;4996293;28;20419;-83
2023/03/06 02:56:26;;;;;;;3.22;2.40;;;;;;;3.84;54.89;100794.88;4995789;28;20029;-83
2023/03/06 02:58:51;;;;;;;1.88;1.27;;;;;;;3.83;55.24;100787.22;5013857;28;20036;-83
2023/03/06 03:01:17;;;;;;;3.80;1.40;;;;;;;3.94;55.11;100785.31;4996208;28;20472;-83
2023/03/06 03:03:42;;;;;;;5.72;2.40;;;;;;;3.97;55.16;100795.50;4979895;28;20415;-83
2023/03/06 03:06:08;;;;;;;1.13;1.02;;;;;;;3.87;54.88;100789.69;4996325;28;20049;-83
2023/03/06 03:08:33;;;;;;;1.90;1.77;;;;;;;3.86;55.28;100782.06;4996417;28;20040;-83
2023/03/06 03:10:59;;;;;;;1.67;1.58;;;;;;;3.78;54.90;100792.44;4979549;28;20510;-83
2023/03/06 03:13:25;;;;;;;2.70;1.77;;;;;;;3.54;55.62;100765.59;4980003;28;20037;-82
2023/03/06 03:16:17;;;;;;;4.57;1.65;;;;;;;3.72;55.89;100800.22;4995929;28;20490;-83
2023/03/06 03:18:46;;;;;;;1.65;1.20;;;;;;;3.57;56.13;100791.09;5009893;28;20037;-83
2023/03/06 03:21:12;;;;;;;4.10;1.58;;;;;;;3.55;56.10;100782.63;4995220;28;20492;-83
2023/03/06 03:23:38;;;;;;;3.67;1.83;;;;;;;3.61;56.34;100795.28;4979421;28;20040;-83
2023/03/06 03:26:11;;;;;;;2.70;1.13;;;;;;;3.69;56.22;100811.34;4995541;28;20033;-83
2023/03/06 03:28:37;;;;;;;1.02;0.98;;;;;;;3.63;56.33;100800.38;4995720;28;20026;-83
2023/03/06 03:31:06;;;;;;;1.30;0.98;;;;;;;3.60;56.72;100801.28;5011927;28;20025;-83
2023/03/06 03:33:32;;;;;;;2.80;2.13;;;;;;;3.55;56.44;100808.19;5012004;28;20040;-83
2023/03/06 03:35:58;;;;;;;1.52;1.08;;;;;;;3.45;56.75;100799.84;4995706;28;20034;-83
2023/03/06 03:38:23;;;;;;;0.65;0.65;;;;;;;3.50;57.34;100802.31;4995433;28;20113;-83
2023/03/06 03:40:49;;;;;;;1.13;0.98;;;;;;;3.37;57.20;100801.69;4995316;28;20484;-83
2023/03/06 03:43:14;;;;;;;1.40;1.30;;;;;;;3.43;57.32;100814.34;4995863;28;20026;-83
2023/03/06 03:45:40;;;;;;;1.38;1.27;;;;;;;3.40;57.61;100823.78;4995302;28;20038;-83
2023/03/06 03:48:05;;;;;;;1.73;1.50;;;;;;;3.38;57.50;100815.31;4995452;28;20084;-82
2023/03/06 03:50:32;;;;;;;2.92;1.52;;;;;;;3.38;57.85;100820.41;4995208;28;20491;-83
2023/03/06 03:52:57;;;;;;;1.90;1.75;;;;;;;3.38;58.01;100820.41;4995192;28;20026;-82
2023/03/06 03:55:23;;;;;;;1.42;1.33;;;;;;;3.33;58.01;100819.63;5011305;28;20598;-81
2023/03/06 03:57:48;;;;;;;1.23;1.13;;;;;;;3.26;58.45;100820.63;4978984;28;20037;-81
2023/03/06 04:00:15;;;;;;;1.40;1.30;;;;;;;3.17;58.64;100822.44;5011395;28;20045;-81
2023/03/06 04:02:42;;;;;;;2.40;1.75;;;;;;;3.19;58.41;100822.41;4995283;28;20029;-81
2023/03/06 04:05:08;;;;;;;3.22;1.83;;;;;;;3.17;58.75;100821.59;4978942;28;20034;-81
2023/03/06 04:07:33;;;;;;;4.50;1.73;;;;;;;3.14;58.78;100819.06;4976732;28;20060;-83
2023/03/06 04:09:59;;;;;;;1.67;1.10;;;;;;;3.17;59.33;100830.13;4994585;28;20415;-82
2023/03/06 04:12:24;;;;;;;2.58;2.00;;;;;;;3.21;58.79;100815.56;4977883;28;20034;-82
2023/03/06 04:14:50;;;;;;;1.38;1.27;;;;;;;3.16;59.30;100825.88;4994432;28;20034;-83
2023/03/06 04:17:15;;;;;;;3.70;1.52;;;;;;;3.24;59.07;100827.44;4995079;28;20468;-82
2023/03/06 04:19:41;;;;;;;3.33;1.40;;;;;;;3.28;59.24;100824.00;4978013;28;20025;-83
2023/03/06 04:22:06;;;;;;;2.67;2.35;;;;;;;3.29;58.76;100821.41;4994703;28;20088;-83
2023/03/06 04:24:31;;;;;;;2.30;1.40;;;;;;;3.22;58.91;100827.47;4994361;28;20029;-82
2023/03/06 04:26:57;;;;;;;2.30;2.10;;;;;;;3.27;59.33;100832.53;5010275;28;20032;-82
2023/03/06 04:29:22;;;;;;;1.40;1.25;;;;;;;3.22;59.11;100826.63;4994851;28;20450;-82
2023/03/06 04:31:48;;;;;;;3.50;1.55;;;;;;;3.19;59.66;100839.47;4994049;28;20037;-82
2023/03/06 04:34:13;;;;;;;1.77;1.27;;;;;;;3.11;59.99;100837.88;4977819;28;20037;-82
2023/03/06 04:36:43;;;;;;;0.95;0.90;;;;;;;3.05;60.26;100835.41;4978144;28;20096;-83
2023/03/06 04:39:10;;;;;;;1.30;1.20;;;;;;;2.98;60.39;100826.16;5009933;28;20029;-83
2023/03/06 04:41:35;;;;;;;3.10;2.15;;;;;;;2.92;60.84;100823.66;4993863;28;20232;-83
2023/03/06 04:44:01;;;;;;;3.47;2.65;;;;;;;3.00;60.81;100834.63;5010429;28;20050;-83
2023/03/06 04:46:26;;;;;;;1.52;1.05;;;;;;;2.98;60.79;100823.59;4994006;28;20041;-83
2023/03/06 04:48:52;;;;;;;1.42;1.33;;;;;;;2.76;60.44;100804.31;4977744;28;20484;-83
2023/03/06 04:51:17;;;;;;;2.83;2.50;;;;;;;2.99;60.39;100838.06;4993959;28;20036;-83
2023/03/06 04:53:43;;;;;;;2.40;1.98;;;;;;;2.95;60.66;100843.22;4993538;28;20029;-83
2023/03/06 04:56:08;;;;;;;1.52;1.15;;;;;;;2.92;60.65;100836.44;4993689;28;20530;-83
2023/03/06 04:58:34;;;;;;;1.20;1.10;;;;;;;2.99;60.72;100853.38;4993746;28;20030;-83
2023/03/06 05:00:59;;;;;;;0.55;0.55;;;;;;;2.80;60.61;100826.41;4993618;28;20480;-83
2023/03/06 05:03:24;;;;;;;1.80;1.70;;;;;;;2.87;61.00;100830.56;4993584;28;20388;-83
2023/03/06 05:05:50;;;;;;;3.83;2.97;;;;;;;2.86;60.88;100832.28;4991348;28;20041;-83
2023/03/06 05:08:16;;;;;;;4.72;3.03;;;;;;;3.07;60.67;100846.47;4993769;28;20026;-83
2023/03/06 05:10:42;;;;;;;2.60;2.00;;;;;;;3.14;60.93;100847.19;4977618;28;20025;-83
2023/03/06 05:13:09;;;;;;;3.17;2.53;;;;;;;3.13;60.43;100860.84;4993563;28;20538;-84
2023/03/06 05:15:35;;;;;;;3.55;2.42;;;;;;;3.15;60.61;100854.88;4977375;28;20033;-83
2023/03/06 05:18:00;;;;;;;5.43;2.40;;;;;;;3.23;60.07;100851.31;5009412;28;20092;-90
2023/03/06 05:20:27;;;;;;;1.55;1.45;;;;;;;3.23;62.83;100856.44;5009478;28;20026;-86
2023/03/06 05:22:53;;;;;;;7.35;2.97;;;;;;;3.29;61.73;100841.03;5008130;28;20068;-86
2023/03/06 05:25:19;;;;;;;1.40;1.23;;;;;;;3.30;60.08;100837.59;4974016;28;20041;-83
2023/03/06 05:27:44;;;;;;;3.33;2.67;;;;;;;3.46;60.41;100851.84;4989883;28;20030;-88
2023/03/06 05:30:11;;;;;;;3.20;1.92;;;;;;;3.43;59.54;100849.31;5006483;28;20034;-95
2023/03/06 05:32:36;;;;;;;7.20;2.58;;;;;;;3.58;59.74;100851.63;5009882;28;20076;-88
2023/03/06 05:35:02;;;;;;;4.55;2.60;;;;;;;3.56;59.48;100862.75;4992583;28;20100;-92
2023/03/06 05:37:27;;;;;;;3.30;2.47;;;;;;;3.51;59.43;100841.50;4996951;28;20025;-93
2023/03/06 05:39:53;;;;;;;3.97;2.13;;;;;;;3.64;59.24;100863.50;5005486;28;20053;-96
2023/03/06 05:42:18;;;;;;;2.08;1.42;;;;;;;3.61;58.99;100872.03;5003424;28;20030;-94
2023/03/06 05:44:44;;;;;;;4.03;2.60;;;;;;;3.64;59.86;100868.59;4992950;28;20040;-91
2023/03/06 05:47:10;;;;;;;2.65;1.83;;;;;;;3.65;59.10;100868.56;5010236;23;20067;-91
2023/03/06 05:49:36;;;;;;;2.42;1.90;;;;;;;3.46;59.22;100839.03;4937171;29;20039;-90
2023/03/06 05:52:05;;;;;;;1.67;1.58;;;;;;;3.67;59.24;100853.19;4934721;28;20035;-84
2023/03/06 05:54:34;;;;;;;3.65;1.38;;;;;;;3.75;59.34;100866.69;4951078;28;20420;-90
2023/03/06 05:56:59;;;;;;;2.17;1.63;;;;;;;3.74;59.21;100857.34;4935766;28;20070;-94
2023/03/06 05:59:27;;;;;;;5.82;3.10;;;;;;;3.89;59.15;100869.84;4936023;28;20027;-88
2023/03/06 06:01:54;;;;;;;3.97;2.63;;;;;;;3.92;59.40;100858.72;4949049;28;20110;-86
2023/03/06 06:04:20;;;;;;;3.90;2.40;;;;;;;3.78;58.98;100819.75;4950463;28;20077;-83
2023/03/06 06:06:45;;;;;;;3.92;2.90;;;;;;;4.10;59.06;100866.06;4966110;28;20110;-87
2023/03/06 06:09:11;;;;;;;1.98;1.77;;;;;;;4.07;58.77;100848.22;4942715;28;20070;-84
2023/03/06 06:11:36;;;;;;;4.25;2.58;;;;;;;4.28;58.79;100878.53;4951571;29;20027;-87
2023/03/06 06:14:02;;;;;;;7.15;3.30;;;;;;;4.33;58.54;100878.47;4934692;29;20090;-89
2023/03/06 06:16:27;;;;;;;4.22;2.60;;;;;;;4.39;58.57;100869.78;4965781;28;20042;-82
2023/03/06 06:18:53;;;;;;;2.72;2.47;;;;;;;4.39;58.56;100872.34;4951643;29;20031;-83
2023/03/06 06:21:18;;;;;;;2.65;2.45;;;;;;;4.61;57.91;100884.69;4949594;28;20117;-94
2023/03/06 06:23:43;;;;;;;3.22;1.90;;;;;;;4.69;57.29;100884.53;4933115;28;20417;-83
2023/03/06 06:26:09;;;;;;;9.48;4.13;;;;;;;4.79;57.08;100896.28;4943219;29;20035;-91
2023/03/06 06:28:35;;;;;;;3.45;2.88;;;;;;;4.77;56.95;100890.38;4951442;29;20027;-92
2023/03/06 06:31:05;;;;;;;5.57;3.60;;;;;;;4.82;57.05;100891.13;4951594;28;20054;-95
2023/03/06 06:33:31;;;;;;;4.25;2.17;;;;;;;4.96;56.87;100883.13;4950240;28;20022;-87
2023/03/06 06:35:56;;;;;;;6.03;3.42;;;;;;;5.06;56.69;100881.22;4950373;29;20035;-90
2023/03/06 06:38:22;;;;;;;2.70;1.67;;;;;;;5.27;56.19;100885.84;4935027;29;20031;-89
2023/03/06 06:40:47;;;;;;;4.25;2.60;;;;;;;5.42;56.47;100900.06;4951473;28;20050;-86
2023/03/06 06:43:13;;;;;;;3.50;2.63;;;;;;;5.45;55.42;100890.56;4950460;29;20539;-83
2023/03/06 06:45:38;;;;;;;3.35;2.67;;;;;;;5.45;54.98;100871.75;4950916;28;20031;-89
2023/03/06 06:48:04;;;;;;;2.42;2.22;;;;;;;5.62;54.58;100873.94;4967539;28;20031;-90
2023/03/06 06:50:29;;;;;;;2.58;1.73;;;;;;;5.83;53.52;100896.50;4951237;28;20027;-94
2023/03/06 06:52:55;;;;;;;4.35;2.33;;;;;;;6.07;53.07;100896.75;4966259;28;20031;-89
2023/03/06 06:55:20;;;;;;;2.10;1.73;;;;;;;6.04;52.34;100890.00;4937073;28;20027;-92
2023/03/06 06:57:46;;;;;;;2.17;1.95;;;;;;;6.25;52.07;100898.84;4954529;28;20038;-84
2023/03/06 07:00:13;;;;;;;2.40;2.20;;;;;;;6.41;51.32;100907.84;4954076;28;20039;-80
2023/03/06 07:02:38;;;;;;;3.03;2.30;;;;;;;6.37;50.79;100889.97;4952814;28;20031;-81
2023/03/06 07:05:04;;;;;;;2.03;1.77;;;;;;;6.68;50.56;100907.94;4968517;28;20042;-85
2023/03/06 07:07:30;;;;;;;3.60;2.20;;;;;;;6.78;49.43;100909.38;4936973;29;20038;-86
2023/03/06 07:09:56;;;;;;;2.58;1.50;;;;;;;6.90;49.59;100909.03;4952570;28;20039;-91
2023/03/06 07:12:21;;;;;;;7.13;3.05;;;;;;;7.04;49.19;100914.59;4953038;28;20551;-82
2023/03/06 07:14:47;;;;;;;5.70;2.45;;;;;;;7.19;48.20;100928.75;4965149;28;20058;-84
2023/03/06 07:17:12;;;;;;;4.22;2.85;;;;;;;7.22;47.82;100914.94;4952046;28;20596;-93
2023/03/06 07:19:38;;;;;;;2.25;2.05;;;;;;;7.34;48.02;100906.84;4938512;29;20023;-88
2023/03/06 07:22:03;;;;;;;1.70;1.60;;;;;;;7.48;45.88;100915.00;4953888;28;20042;-93
2023/03/06 07:24:29;;;;;;;1.45;1.20;;;;;;;7.47;45.32;100913.28;4944084;28;20065;-93
2023/03/06 07:26:54;;;;;;;7.22;2.95;;;;;;;7.64;46.07;100911.03;4953041;28;20514;-86
2023/03/06 07:29:21;;;;;;;1.88;1.67;;;;;;;7.76;45.82;100915.75;4956499;28;20039;-94
2023/03/06 07:31:46;;;;;;;4.57;1.63;;;;;;;7.83;45.48;100905.28;4955164;28;20523;-87
2023/03/06 07:34:12;;;;;;;3.70;3.33;;;;;;;7.90;44.10;100917.06;4954708;28;20043;-92
2023/03/06 07:36:39;;;;;;;2.55;2.03;;;;;;;8.04;44.21;100927.75;4936890;29;20035;-83
2023/03/06 07:39:08;;;;;;;5.55;1.90;;;;;;;8.11;42.25;100916.34;4969063;28;20043;-94
2023/03/06 07:41:33;;;;;;;3.88;2.20;;;;;;;8.24;42.77;100924.50;4937868;28;20381;-89
2023/03/06 07:43:59;;;;;;;2.63;1.77;;;;;;;8.29;43.25;100928.59;4969377;28;20042;-90
2023/03/06 07:46:24;;;;;;;7.00;3.17;;;;;;;8.27;41.79;100907.19;4936555;29;20051;-85
2023/03/06 07:48:50;;;;;;;2.45;2.20;;;;;;;8.31;40.42;100913.91;4967920;28;20456;-91
2023/03/06 07:51:17;;;;;;;6.20;2.03;;;;;;;8.45;40.56;100917.78;4968628;28;20031;-86
2023/03/06 07:53:42;;;;;;;3.25;1.77;;;;;;;8.55;40.72;100929.44;4937004;28;20472;-85
2023/03/06 07:56:09;;;;;;;1.58;1.13;;;;;;;8.67;39.74;100931.59;4949261;28;20182;-91
2023/03/06 07:58:36;;;;;;;4.93;2.15;;;;;;;8.69;39.84;100928.97;4954945;28;20023;-87
2023/03/06 08:01:05;;;;;;;2.83;2.05;;;;;;;8.81;39.80;100929.34;4968193;28;20062;-90
2023/03/06 08:03:31;;;;;;;1.90;1.02;;;;;;;8.82;39.46;100930.19;4953676;28;20118;-89
2023/03/06 08:06:14;;;;;;;5.18;2.05;;;;;;;8.90;38.79;100929.00;4950169;29;20114;-93
2023/03/06 08:08:40;;;;;;;5.30;2.15;;;;;;;8.96;38.42;100911.63;4950241;28;20062;-87
2023/03/06 08:11:06;;;;;;;2.72;2.25;;;;;;;9.02;38.07;100921.72;4969343;28;20035;-85
2023/03/06 08:13:32;;;;;;;3.53;2.42;;;;;;;9.13;38.08;100932.47;4951370;28;20110;-84
2023/03/06 08:15:58;;;;;;;5.68;2.97;;;;;;;9.18;36.98;100927.97;4935056;29;20035;-86
2023/03/06 08:18:24;;;;;;;3.45;1.73;;;;;;;9.29;37.16;100933.56;4954042;28;20198;-86
2023/03/06 08:20:50;;;;;;;3.92;2.20;;;;;;;9.28;37.32;100918.97;4953439;28;20404;-91
2023/03/06 08:23:16;;;;;;;2.45;2.20;;;;;;;9.25;36.39;100919.09;4958703;28;20027;-90
2023/03/06 08:25:41;;;;;;;1.92;1.40;;;;;;;9.41;36.04;100930.50;4968450;28;20034;-87
2023/03/06 08:28:07;;;;;;;4.10;2.13;;;;;;;9.40;35.29;100933.16;4968942;28;20031;-84
2023/03/06 08:30:32;;;;;;;4.97;2.13;;;;;;;9.37;35.07;100928.94;4950657;29;20472;-84
2023/03/06 08:32:58;;;;;;;4.85;3.67;;;;;;;9.48;35.36;100920.78;4951472;28;20039;-81
2023/03/06 08:35:24;;;;;;;7.30;3.28;;;;;;;9.60;36.41;100916.84;4959215;28;20022;-85
2023/03/06 08:37:49;;;;;;;3.67;2.53;;;;;;;9.61;35.08;100890.97;4952540;28;20042;-93
2023/03/06 08:40:15;;;;;;;0.80;0.70;;;;;;;9.76;35.03;100911.03;4953501;28;20405;-87
2023/03/06 08:42:40;;;;;;;2.10;1.40;;;;;;;9.75;35.32;100908.50;4967626;28;20061;-91
2023/03/06 08:45:06;;;;;;;2.63;1.40;;;;;;;9.97;34.22;100929.13;4936159;29;20508;-88
2023/03/06 08:47:33;;;;;;;2.65;1.83;;;;;;;9.90;34.49;100922.53;4951660;28;20051;-89
2023/03/06 08:49:59;;;;;;;3.85;2.05;;;;;;;10.09;33.63;100926.03;4954869;28;20046;-94
2023/03/06 08:52:24;;;;;;;3.03;1.73;;;;;;;10.20;32.63;100925.56;4939983;28;20027;-91
2023/03/06 08:54:51;;;;;;;2.80;1.70;;;;;;;10.11;30.97;100915.63;4955815;28;20515;-93
2023/03/06 08:57:16;;;;;;;10.27;2.88;;;;;;;10.21;32.92;100927.25;4969262;28;20070;-95
2023/03/06 08:59:42;;;;;;;3.50;1.95;;;;;;;10.27;32.36;100907.19;4961343;28;20018;-93
2023/03/06 09:02:11;;;;;;;2.05;1.40;;;;;;;10.33;31.98;100927.63;4954647;28;20567;-89
2023/03/06 09:04:36;;;;;;;2.13;1.73;;;;;;;10.44;32.22;100918.56;4951708;28;20034;-85
2023/03/06 09:07:02;;;;;;;3.53;2.20;;;;;;;10.34;30.42;100918.94;4967809;28;20035;-91
2023/03/06 09:09:27;;;;;;;4.80;1.77;;;;;;;10.43;30.85;100917.72;4941241;29;20489;-90
2023/03/06 09:11:53;;;;;;;2.97;1.40;;;;;;;10.50;31.39;100908.75;4967385;28;20082;-87
2023/03/06 09:14:19;;;;;;;2.47;1.70;;;;;;;10.41;30.47;100888.47;4952321;28;20027;-86
2023/03/06 09:16:44;;;;;;;1.55;1.30;;;;;;;10.61;31.52;100906.53;4935038;28;20034;-95
2023/03/06 09:19:10;;;;;;;2.03;1.63;;;;;;;10.57;31.40;100866.19;4938193;28;20055;-92
2023/03/06 09:21:35;;;;;;;2.33;1.45;;;;;;;10.89;30.49;100910.47;4954044;28;20182;-89
2023/03/06 09:24:01;;;;;;;2.55;2.35;;;;;;;11.00;31.02;100918.56;4950332;28;20031;-90
2023/03/06 09:26:26;;;;;;;3.97;1.83;;;;;;;10.78;30.41;100887.66;4935607;29;20033;-92
2023/03/06 09:28:52;;;;;;;2.33;1.45;;;;;;;10.95;30.68;100901.59;4950204;28;20070;-87
2023/03/06 09:31:18;;;;;;;3.10;2.17;;;;;;;10.92;30.76;100902.59;4950150;28;20042;-88
2023/03/06 09:33:43;;;;;;;2.47;1.75;;;;;;;10.75;30.78;100887.81;4966836;28;20043;-83
2023/03/06 09:36:18;;;;;;;2.10;1.70;;;;;;;11.14;30.62;100916.19;4952506;28;20023;-84
2023/03/06 09:38:46;;;;;;;2.85;1.80;;;;;;;11.13;31.09;100917.13;4935504;29;20039;-82
2023/03/06 09:41:44;;;;;;;4.22;1.38;;;;;;;11.10;31.37;100924.16;4966876;28;20027;-89
2023/03/06 09:44:15;;;;;;;2.45;1.95;;;;;;;11.04;31.37;100907.19;4959650;28;20119;-91
2023/03/06 09:46:59;;;;;;;5.55;2.30;;;;;;;11.08;31.61;100913.88;4950249;29;20570;-89
2023/03/06 09:49:39;;;;;;;2.88;2.08;;;;;;;10.96;32.15;100885.16;4951544;29;20031;-88
2023/03/06 09:52:17;;;;;;;3.13;1.73;;;;;;;11.14;31.90;100911.03;4950851;28;20625;-88
2023/03/06 09:54:44;;;;;;;2.92;1.90;;;;;;;11.46;32.21;100903.47;4953341;28;20034;-86
2023/03/06 09:57:35;;;;;;;2.00;1.50;;;;;;;11.58;31.36;100904.63;4965514;28;20039;-91
2023/03/06 10:00:06;;;;;;;4.18;2.33;;;;;;;11.73;31.50;100896.97;4968841;28;20019;-84
2023/03/06 10:02:40;;;;;;;6.28;3.20;;;;;;;11.94;31.49;100902.84;4944788;28;20063;-89
2023/03/06 10:05:09;;;;;;;2.63;1.58;;;;;;;12.07;31.84;100898.72;4951402;28;20094;-91
2023/03/06 10:07:54;;;;;;;4.47;1.75;;;;;;;12.11;30.71;100898.59;4966857;28;20035;-93
2023/03/06 10:10:29;;;;;;;4.60;2.40;;;;;;;12.05;30.90;100899.72;4967065;28;20046;-88
2023/03/06 10:13:01;;;;;;;2.70;1.83;;;;;;;12.05;31.59;100871.19;4949961;28;20117;-83
2023/03/06 10:15:34;;;;;;;4.45;2.97;;;;;;;12.01;31.83;100887.84;4966480;28;20035;-87
2023/03/06 10:18:01;;;;;;;12.05;2.47;;;;;;;11.96;31.17;100895.00;4953413;28;20043;-82
2023/03/06 10:20:47;;;;;;;3.85;2.28;;;;;;;11.77;31.59;100889.84;4934099;28;20023;-90
2023/03/06 10:23:31;;;;;;;3.22;1.90;;;;;;;11.77;31.93;100895.03;4953080;28;20393;-93
2023/03/06 10:26:03;;;;;;;4.47;2.08;;;;;;;11.87;31.75;100882.50;4950755;28;20493;-88
2023/03/06 10:28:40;;;;;;;3.17;2.03;;;;;;;12.08;31.68;100878.81;4965780;28;20480;-86
2023/03/06 10:31:17;;;;;;;5.03;2.45;;;;;;;12.07;31.41;100851.19;4952244;28;20505;-88
2023/03/06 10:33:54;;;;;;;3.60;2.75;;;;;;;12.09;31.13;100849.38;4953638;29;20652;-87
2023/03/06 10:36:21;;;;;;;1.98;1.60;;;;;;;12.25;32.32;100862.38;4970000;28;20026;-87
2023/03/06 10:38:47;;;;;;;4.82;2.22;;;;;;;12.03;31.15;100824.59;4953592;28;20027;-92
2023/03/06 10:41:12;;;;;;;3.35;1.90;;;;;;;12.30;31.46;100850.88;4954782;28;20030;-90
2023/03/06 10:44:05;;;;;;;4.93;2.78;;;;;;;12.43;32.01;100852.81;4954843;28;20031;-90
2023/03/06 10:46:41;;;;;;;3.08;2.10;;;;;;;12.55;32.07;100832.22;4966192;28;20534;-89
2023/03/06 10:49:31;;;;;;;4.93;2.03;;;;;;;12.91;31.29;100844.97;4954242;28;20028;-91
2023/03/06 10:52:04;;;;;;;5.40;3.13;;;;;;;12.98;30.83;100834.22;4965344;28;20181;-93
2023/03/06 10:54:37;;;;;;;3.30;2.28;;;;;;;12.94;30.29;100823.19;4969184;28;20031;-92
2023/03/06 10:57:26;;;;;;;4.25;2.75;;;;;;;13.21;30.97;100826.03;4953986;28;20857;-86
2023/03/06 10:59:54;;;;;;;6.55;3.00;;;;;;;13.42;31.27;100797.97;4953717;28;20032;-88
2023/03/06 11:02:28;;;;;;;3.90;2.35;;;;;;;13.44;31.78;100811.72;4955235;28;21053;-89
2023/03/06 11:04:53;;;;;;;4.90;2.95;;;;;;;13.41;30.09;100811.91;4967719;28;20038;-91
2023/03/06 11:07:20;;;;;;;4.53;2.65;;;;;;;13.41;30.81;100810.13;4938084;29;20023;-90
2023/03/06 11:09:58;;;;;;;3.42;2.40;;;;;;;13.34;30.37;100805.38;4953974;28;20027;-86
2023/03/06 11:12:31;;;;;;;4.75;2.60;;;;;;;13.35;30.74;100804.44;4954150;28;20031;-86
2023/03/06 11:15:08;;;;;;;3.25;1.80;;;;;;;13.27;30.51;100784.09;4969282;28;20035;-87
2023/03/06 11:17:37;;;;;;;4.43;2.42;;;;;;;13.56;30.02;100778.97;4954298;28;20501;-88
2023/03/06 11:20:19;;;;;;;4.03;2.58;;;;;;;13.43;29.73;100732.09;4940647;28;20055;-89
2023/03/06 11:25:21;;;;;;;4.90;2.97;;;;;;;13.49;31.08;100765.53;5007808;23;20442;-92
2023/03/06 11:27:59;;;;;;;5.80;1.88;;;;;;;13.54;30.04;100754.84;4991721;28;20421;-83
2023/03/06 11:30:38;;;;;;;5.78;2.70;;;;;;;13.57;30.42;100758.13;4992422;28;20026;-95
2023/03/06 11:33:32;;;;;;;4.32;2.63;;;;;;;13.63;30.35;100759.50;4974824;28;20534;-94
2023/03/06 11:36:14;;;;;;;4.43;2.00;;;;;;;13.34;30.55;100722.22;4997959;28;20030;-87
2023/03/06 11:38:50;;;;;;;4.00;2.65;;;;;;;13.55;30.67;100754.75;4998897;28;20036;-90